Orbital elements of FREGAT DEB
| Launched | 17 July 2011 |
| Flight ended | – |
| Launch site | Tyuratam Missile and Space Center, Kazakhstan (Also known as Baikonur Cosmodrome) |
| Owner | Commonwealth of Independent States (former USSR) |
| NORAD ID | 49271 |
| Date fetched |
Epoch osculation |
Inc. [°] |
Ecc. | RA asc node [hr] |
Arg Peri. [°] |
Mean anom [°] |
Mean motion [rev/day] |
Abs. mag |
| Date fetched |
Epoch osculation |
Inc. [°] |
Ecc. | RA asc node [hr] |
Arg Peri. [°] |
Mean anom [°] |
Mean motion [rev/day] |
Abs. mag |
| 2026 May 08 17:57 | 2026 May 07 09:38:21 | 51.6377 | 0.09339 | 8.2958 | 193.5305 | 163.8839 | 12.41282 | – |
| 2026 May 07 17:58 | 2026 May 06 08:31:08 | 51.6379 | 0.09344 | 8.5054 | 191.1915 | 163.8839 | 12.41282 | – |
| 2026 May 06 17:57 | 2026 May 06 08:31:08 | 51.6379 | 0.09344 | 8.5054 | 191.1915 | 163.8839 | 12.41282 | – |
| 2026 May 05 17:57 | 2026 May 05 09:19:50 | 51.6383 | 0.09349 | 8.6989 | 189.0285 | 163.8839 | 12.41282 | – |
| 2026 May 04 17:57 | 2026 May 04 10:08:31 | 51.6384 | 0.09354 | 8.8923 | 186.8640 | 163.8839 | 12.41282 | – |
| 2026 May 03 17:57 | 2026 May 02 09:49:52 | 51.6390 | 0.09365 | 9.2953 | 182.3416 | 163.8839 | 12.41282 | – |
| 2026 May 02 17:57 | 2026 May 02 09:49:52 | 51.6390 | 0.09365 | 9.2953 | 182.3416 | 163.8839 | 12.41282 | – |
| 2026 May 01 17:56 | 2026 May 01 10:38:30 | 51.6375 | 0.09371 | 9.4888 | 180.1587 | 163.8839 | 12.41282 | – |
| 2026 Apr 30 17:56 | 2026 Apr 29 10:19:44 | 51.6406 | 0.09381 | 9.8918 | 175.6076 | 163.8839 | 12.41282 | – |
| 2026 Apr 29 17:57 | 2026 Apr 29 10:19:44 | 51.6406 | 0.09381 | 9.8918 | 175.6076 | 163.8839 | 12.41282 | – |
| 2026 Apr 28 17:56 | 2026 Apr 28 11:08:17 | 51.6396 | 0.09387 | 10.0853 | 173.4283 | 163.8839 | 12.41282 | – |
| 2026 Apr 27 17:58 | 2026 Apr 25 11:37:52 | 51.6455 | 0.09406 | 10.6816 | 166.6488 | 163.8839 | 12.41282 | – |
| 2026 Apr 26 17:58 | 2026 Apr 25 11:37:52 | 51.6455 | 0.09406 | 10.6816 | 166.6488 | 163.8839 | 12.41282 | – |
| 2026 Apr 25 17:58 | 2026 Apr 25 11:37:52 | 51.6455 | 0.09406 | 10.6816 | 166.6488 | 163.8839 | 12.41282 | – |
| 2026 Apr 24 17:59 | 2026 Apr 21 05:11:50 | 51.6429 | 0.09436 | 11.5360 | 156.8872 | 163.8839 | 12.41282 | – |
| 2026 Apr 23 17:57 | 2026 Apr 21 05:11:50 | 51.6429 | 0.09436 | 11.5360 | 156.8872 | 163.8839 | 12.41282 | – |
| 2026 Apr 22 17:57 | 2026 Apr 21 05:11:50 | 51.6429 | 0.09436 | 11.5360 | 156.8872 | 163.8839 | 12.41282 | – |
| 2026 Apr 21 17:57 | 2026 Apr 21 05:11:50 | 51.6429 | 0.09436 | 11.5360 | 156.8872 | 163.8839 | 12.41282 | – |
| 2026 Apr 20 17:57 | 2026 Apr 18 05:41:05 | 51.6415 | 0.09454 | 12.1325 | 150.0785 | 163.8839 | 12.41282 | – |
| 2026 Apr 19 17:58 | 2026 Apr 18 05:41:05 | 51.6415 | 0.09454 | 12.1325 | 150.0785 | 163.8839 | 12.41282 | – |
| 2026 Apr 18 17:56 | 2026 Apr 18 05:41:05 | 51.6415 | 0.09454 | 12.1325 | 150.0785 | 163.8839 | 12.41282 | – |
| 2026 Apr 16 17:57 | 2026 Apr 14 22:26:23 | 51.6410 | 0.09479 | 12.7934 | 142.5117 | 163.8839 | 12.41282 | – |
| 2026 Apr 14 17:57 | 2026 Apr 14 06:58:38 | 51.6418 | 0.09482 | 12.9224 | 141.0354 | 163.8839 | 12.41282 | – |
| 2026 Apr 13 17:57 | 2026 Apr 12 16:19:14 | 51.6394 | 0.09495 | 13.2450 | 137.3303 | 163.8839 | 12.41282 | – |
| 2026 Apr 12 17:57 | 2026 Apr 10 23:43:52 | 51.6392 | 0.09508 | 13.5837 | 133.4539 | 163.8839 | 12.41282 | – |
| 2026 Apr 11 17:57 | 2026 Apr 10 23:43:52 | 51.6392 | 0.09508 | 13.5837 | 133.4539 | 163.8839 | 12.41282 | – |